Time;durP1;ratioP1;P1;durP2;ratioP2;P2;SDS_P1;SDS_P2;PMS_P1;PMS_P2;Temp;Humidity;BMP_temperature;BMP_pressure;BME280_temperature;BME280_humidity;BME280_pressure;Samples;Min_cycle;Max_cycle;Signal;HPM_P1;HPM_P2
2023/10/04 00:00:15;;;;;;;13.05;2.17;;;15.80;96.80;;;;;;5030118;28;36235;-78
2023/10/04 00:02:44;;;;;;;6.05;2.20;;;15.90;95.00;;;;;;5046749;28;39868;-78
2023/10/04 00:05:15;;;;;;;10.00;2.88;;;15.90;93.20;;;;;;5044916;28;39042;-77
2023/10/04 00:07:44;;;;;;;7.80;2.33;;;15.90;94.20;;;;;;5015925;28;38360;-78
2023/10/04 00:10:11;;;;;;;8.48;2.60;;;15.80;96.60;;;;;;5043410;28;37163;-78
2023/10/04 00:12:38;;;;;;;7.05;2.60;;;15.70;99.90;;;;;;5010998;28;39213;-79
2023/10/04 00:15:12;;;;;;;13.23;2.72;;;15.70;95.00;;;;;;5024090;28;39188;-78
2023/10/04 00:17:41;;;;;;;7.50;2.00;;;15.70;93.20;;;;;;5025844;28;39302;-78
2023/10/04 00:20:16;;;;;;;8.77;2.15;;;15.70;96.20;;;;;;5029934;28;36768;-78
2023/10/04 00:22:46;;;;;;;10.15;2.58;;;15.80;95.10;;;;;;5042833;28;38490;-79
2023/10/04 00:25:23;;;;;;;6.13;2.42;;;15.70;98.20;;;;;;5023648;28;38237;-78
2023/10/04 00:27:52;;;;;;;8.80;2.50;;;15.70;98.90;;;;;;5040487;28;38211;-78
2023/10/04 00:30:19;;;;;;;10.57;2.72;;;15.70;98.50;;;;;;5026804;28;37761;-79
2023/10/04 00:32:46;;;;;;;6.10;2.00;;;15.70;99.90;;;;;;5047669;28;38340;-77
2023/10/04 00:35:19;;;;;;;8.25;2.08;;;15.60;99.90;;;;;;5020398;28;39164;-78
2023/10/04 00:37:56;;;;;;;5.15;1.90;;;15.50;99.90;;;;;;5025840;28;37026;-78
2023/10/04 00:40:31;;;;;;;10.23;2.58;;;15.50;99.40;;;;;;5032717;28;37394;-78
2023/10/04 00:43:01;;;;;;;9.43;2.38;;;15.50;99.90;;;;;;5038318;28;37789;-77
2023/10/04 00:45:32;;;;;;;11.63;2.50;;;15.60;99.50;;;;;;5036368;28;47299;-77
2023/10/04 00:48:00;;;;;;;9.38;2.58;;;15.60;97.50;;;;;;5028002;28;37508;-77
2023/10/04 00:50:34;;;;;;;7.10;2.25;;;15.70;95.70;;;;;;5047731;28;48104;-78
2023/10/04 00:53:35;;;;;;;9.52;2.65;;;15.70;99.90;;;;;;5037090;28;37811;-78
2023/10/04 00:56:02;;;;;;;11.23;2.40;;;15.60;99.90;;;;;;5000343;28;48470;-78
2023/10/04 00:58:28;;;;;;;10.32;2.33;;;15.60;99.90;;;;;;5029809;28;37632;-78
2023/10/04 01:03:36;;;;;;;10.13;2.15;;;15.50;99.90;;;;;;5173122;22;20041;-80
2023/10/04 01:06:04;;;;;;;10.75;2.22;;;15.50;99.90;;;;;;5038409;28;37928;-79
2023/10/04 01:08:30;;;;;;;8.38;2.10;;;15.60;99.00;;;;;;5038126;28;38902;-79
2023/10/04 01:10:57;;;;;;;5.75;2.05;;;15.60;99.90;;;;;;5045380;28;37545;-80
2023/10/04 01:13:26;;;;;;;10.60;2.70;;;15.50;99.90;;;;;;5051190;28;37696;-79
2023/10/04 01:15:57;;;;;;;9.35;2.40;;;15.50;99.90;;;;;;5061993;28;38964;-79
2023/10/04 01:18:23;;;;;;;10.38;2.42;;;15.50;99.90;;;;;;5040805;28;37296;-78
2023/10/04 01:20:51;;;;;;;4.88;1.80;;;15.50;99.90;;;;;;5059481;28;37880;-80
2023/10/04 01:23:18;;;;;;;8.50;2.08;;;15.50;99.90;;;;;;5057109;28;40212;-78
2023/10/04 01:25:46;;;;;;;11.05;2.78;;;15.50;99.90;;;;;;5039425;28;37516;-78
2023/10/04 01:28:17;;;;;;;11.05;2.35;;;15.50;99.90;;;;;;5038248;28;37681;-78
2023/10/04 01:30:45;;;;;;;5.78;2.08;;;15.40;99.90;;;;;;5061055;28;38281;-79
2023/10/04 01:33:15;;;;;;;6.38;1.90;;;15.40;99.90;;;;;;5064397;28;38920;-78
2023/10/04 01:35:45;;;;;;;9.98;2.28;;;15.40;99.90;;;;;;5063868;28;39093;-79
2023/10/04 01:38:11;;;;;;;9.68;2.40;;;15.40;99.90;;;;;;5048454;28;38543;-78
2023/10/04 01:40:39;;;;;;;9.60;2.40;;;15.40;99.90;;;;;;5058749;28;38694;-78
2023/10/04 01:43:17;;;;;;;7.95;2.15;;;15.30;99.90;;;;;;5062803;28;38757;-78
2023/10/04 01:45:47;;;;;;;5.85;1.98;;;15.40;99.90;;;;;;5045104;28;38678;-78
2023/10/04 01:48:15;;;;;;;9.55;2.35;;;15.30;99.90;;;;;;5054562;28;37246;-78
2023/10/04 01:50:42;;;;;;;12.68;2.90;;;15.20;99.90;;;;;;5044633;28;36291;-78
2023/10/04 01:53:09;;;;;;;12.40;2.47;;;15.20;99.90;;;;;;5052511;28;39118;-78
2023/10/04 01:55:36;;;;;;;8.52;2.17;;;15.20;99.90;;;;;;5051199;28;38556;-78
2023/10/04 01:58:04;;;;;;;9.57;2.40;;;15.20;99.90;;;;;;5066287;28;38683;-78
2023/10/04 02:00:30;;;;;;;6.85;2.17;;;15.20;99.90;;;;;;5069976;28;37075;-78
2023/10/04 02:02:56;;;;;;;9.63;2.63;;;15.20;99.90;;;;;;5062667;28;39575;-78
2023/10/04 02:05:31;;;;;;;8.75;2.17;;;15.20;99.90;;;;;;5042835;28;37892;-77
2023/10/04 02:07:59;;;;;;;9.63;2.22;;;15.20;99.90;;;;;;5047250;28;37558;-78
2023/10/04 02:10:26;;;;;;;11.73;2.50;;;15.10;99.90;;;;;;5050830;28;36565;-78
2023/10/04 02:12:55;;;;;;;6.22;2.05;;;15.00;99.90;;;;;;5066451;28;38668;-78
2023/10/04 02:15:21;;;;;;;8.75;2.20;;;15.00;99.90;;;;;;5049780;28;37604;-78
2023/10/04 02:17:48;;;;;;;9.00;2.10;;;14.90;99.90;;;;;;5059219;28;37577;-78
2023/10/04 02:20:23;;;;;;;9.48;2.63;;;15.00;99.90;;;;;;5046594;28;36230;-79
2023/10/04 02:22:54;;;;;;;9.82;2.67;;;15.00;99.90;;;;;;5048427;28;38521;-78
2023/10/04 02:25:20;;;;;;;5.07;1.95;;;15.00;99.90;;;;;;5050747;28;37903;-79
2023/10/04 02:27:49;;;;;;;7.30;2.10;;;14.90;99.90;;;;;;5043813;28;37245;-79
2023/10/04 02:30:21;;;;;;;10.52;2.13;;;14.90;99.90;;;;;;5056614;28;38270;-79
2023/10/04 02:32:48;;;;;;;11.25;2.92;;;14.80;99.90;;;;;;5064793;28;38313;-79
2023/10/04 02:35:27;;;;;;;7.40;2.28;;;14.80;99.90;;;;;;5042700;28;37901;-77
2023/10/04 02:38:00;;;;;;;9.60;2.50;;;14.80;99.90;;;;;;5067190;28;39276;-78
2023/10/04 02:40:27;;;;;;;10.05;3.22;;;14.90;99.90;;;;;;5046843;28;36661;-77
2023/10/04 02:42:58;;;;;;;10.45;3.22;;;15.00;99.90;;;;;;5047189;28;37649;-77
2023/10/04 02:45:26;;;;;;;9.43;2.40;;;15.00;99.90;;;;;;5037982;28;39331;-77
2023/10/04 02:47:53;;;;;;;15.43;3.00;;;15.00;99.90;;;;;;5057379;28;38320;-78
2023/10/04 02:50:22;;;;;;;9.45;2.45;;;15.00;99.90;;;;;;5061555;28;36259;-77
2023/10/04 02:52:50;;;;;;;11.50;2.47;;;14.90;99.90;;;;;;5047128;28;37920;-77
2023/10/04 02:55:20;;;;;;;7.22;2.40;;;14.90;99.90;;;;;;5046570;28;37689;-77
2023/10/04 02:57:50;;;;;;;6.47;2.40;;;14.90;99.90;;;;;;5064397;28;38637;-77
2023/10/04 03:00:19;;;;;;;10.27;2.83;;;14.90;99.90;;;;;;5065261;28;38012;-78
2023/10/04 03:02:53;;;;;;;11.75;2.90;;;14.90;99.90;;;;;;5042852;28;37751;-78
2023/10/04 03:05:20;;;;;;;8.88;2.22;;;14.80;99.90;;;;;;5043406;28;37880;-78
2023/10/04 03:07:47;;;;;;;11.60;2.83;;;14.80;99.90;;;;;;5041603;28;37134;-77
2023/10/04 03:10:23;;;;;;;10.80;2.55;;;14.80;99.90;;;;;;5037389;28;37439;-77
2023/10/04 03:12:54;;;;;;;7.78;2.42;;;14.80;99.90;;;;;;5058385;28;40659;-78
2023/10/04 03:15:24;;;;;;;12.57;2.50;;;14.80;99.90;;;;;;5043419;28;39244;-78
2023/10/04 03:17:52;;;;;;;10.00;2.88;;;14.80;99.90;;;;;;5044241;28;38687;-78
2023/10/04 03:20:20;;;;;;;5.75;2.08;;;14.80;99.90;;;;;;5059355;28;37873;-78
2023/10/04 03:22:48;;;;;;;11.60;2.63;;;14.70;99.90;;;;;;5062499;28;38706;-79
2023/10/04 03:25:17;;;;;;;5.97;2.30;;;14.70;99.90;;;;;;5063220;28;39127;-78
2023/10/04 03:27:44;;;;;;;7.45;2.25;;;14.70;99.90;;;;;;5045883;28;37588;-79
2023/10/04 03:30:14;;;;;;;11.15;2.65;;;14.60;99.90;;;;;;5040784;28;36265;-78
2023/10/04 03:32:55;;;;;;;10.65;2.80;;;14.50;99.90;;;;;;5060566;28;39596;-78
2023/10/04 03:35:24;;;;;;;9.18;2.70;;;14.50;99.90;;;;;;5042108;28;39003;-78
2023/10/04 03:37:58;;;;;;;8.55;2.35;;;14.40;99.90;;;;;;5061646;28;39155;-78
2023/10/04 03:40:27;;;;;;;;;;;14.40;99.90;;;;;;5042078;28;36093;-79
2023/10/04 03:42:53;;;;;;;9.82;2.22;;;14.40;99.90;;;;;;5057388;28;38904;-78
2023/10/04 03:45:20;;;;;;;7.85;2.53;;;14.30;99.90;;;;;;5060610;28;37586;-78
2023/10/04 03:47:50;;;;;;;8.90;2.85;;;14.30;99.90;;;;;;5044249;28;38941;-78
2023/10/04 03:50:19;;;;;;;10.18;2.72;;;14.30;99.90;;;;;;5059348;28;37399;-79
2023/10/04 03:52:47;;;;;;;10.68;3.08;;;14.20;99.90;;;;;;5055456;28;38581;-78
2023/10/04 03:55:14;;;;;;;7.75;2.67;;;14.10;99.90;;;;;;5042570;28;38325;-78
2023/10/04 03:57:44;;;;;;;9.90;2.90;;;14.10;99.90;;;;;;5046635;28;37394;-78
2023/10/04 04:00:17;;;;;;;9.93;3.28;;;14.00;99.90;;;;;;5060572;28;37888;-78
2023/10/04 04:02:44;;;;;;;8.95;2.63;;;14.00;99.90;;;;;;5056322;28;39580;-78
2023/10/04 04:05:14;;;;;;;10.20;3.00;;;14.00;99.90;;;;;;5047248;28;38804;-78
2023/10/04 04:07:43;;;;;;;10.10;3.05;;;14.00;99.90;;;;;;5060181;28;38370;-78
2023/10/04 04:10:12;;;;;;;9.35;2.88;;;14.00;99.90;;;;;;5056623;28;37037;-78
2023/10/04 04:12:40;;;;;;;11.98;3.28;;;14.00;99.90;;;;;;5041461;28;37996;-78
2023/10/04 04:15:10;;;;;;;10.50;2.65;;;13.90;99.90;;;;;;5058230;28;39130;-78
2023/10/04 04:17:37;;;;;;;8.75;2.60;;;13.90;99.90;;;;;;5043780;28;37327;-78
2023/10/04 04:20:14;;;;;;;7.70;2.78;;;13.90;99.90;;;;;;5040595;28;37800;-78
2023/10/04 04:22:46;;;;;;;8.35;2.40;;;13.90;99.90;;;;;;5062278;28;48291;-78
2023/10/04 04:25:15;;;;;;;8.52;3.20;;;13.80;99.90;;;;;;5064632;28;39216;-79
2023/10/04 04:27:45;;;;;;;10.52;2.75;;;13.80;99.90;;;;;;5048831;28;39081;-79
2023/10/04 04:30:19;;;;;;;8.40;2.53;;;13.70;99.90;;;;;;5033982;28;37388;-78
2023/10/04 04:32:54;;;;;;;9.93;2.85;;;13.70;99.90;;;;;;5052123;28;37687;-78
2023/10/04 04:38:19;;;;;;;9.73;2.90;;;13.60;99.90;;;;;;5054170;28;38794;-78
2023/10/04 04:40:48;;;;;;;10.48;2.78;;;13.50;99.90;;;;;;5046708;28;47379;-79
2023/10/04 04:45:51;;;;;;;11.70;3.38;;;13.30;99.90;;;;;;5061739;28;38864;-78
2023/10/04 04:48:23;;;;;;;10.20;2.83;;;13.30;99.90;;;;;;5045532;28;37290;-78
2023/10/04 04:50:57;;;;;;;13.98;3.20;;;13.20;99.90;;;;;;5040762;28;36272;-77
2023/10/04 04:53:27;;;;;;;10.07;3.03;;;13.30;99.90;;;;;;5060245;28;39300;-77
2023/10/04 04:55:54;;;;;;;10.43;2.80;;;13.30;99.90;;;;;;5050685;28;39308;-75
2023/10/04 04:58:26;;;;;;;7.63;2.65;;;13.30;99.90;;;;;;5046042;28;39637;-76
2023/10/04 05:01:00;;;;;;;12.23;3.67;;;13.30;99.90;;;;;;5041500;28;37385;-77
2023/10/04 05:03:27;;;;;;;8.68;2.80;;;13.30;99.90;;;;;;5048443;28;39397;-77
2023/10/04 05:05:55;;;;;;;9.48;2.90;;;13.20;99.90;;;;;;5039651;28;38137;-76
2023/10/04 05:08:24;;;;;;;8.23;2.47;;;13.10;99.90;;;;;;5070683;28;38660;-77
2023/10/04 05:10:51;;;;;;;9.50;2.88;;;13.10;99.90;;;;;;5054394;28;37245;-78
2023/10/04 05:13:20;;;;;;;10.05;2.72;;;13.00;99.90;;;;;;5047190;28;37943;-78
2023/10/04 05:15:47;;;;;;;8.55;2.72;;;12.90;99.90;;;;;;5045229;28;37931;-78
2023/10/04 05:18:17;;;;;;;9.90;3.38;;;12.90;99.90;;;;;;5062920;28;38404;-77
2023/10/04 05:20:53;;;;;;;14.13;2.67;;;12.90;99.90;;;;;;5059760;28;36841;-77
2023/10/04 05:23:21;;;;;;;9.77;3.15;;;12.80;99.90;;;;;;5049449;28;37782;-77
2023/10/04 05:25:49;;;;;;;10.27;2.50;;;12.80;99.90;;;;;;5045640;28;39436;-76
2023/10/04 05:28:15;;;;;;;12.40;2.55;;;12.80;99.90;;;;;;5043639;28;38654;-75
2023/10/04 05:30:44;;;;;;;8.55;2.78;;;12.80;99.90;;;;;;5054177;28;36291;-75
2023/10/04 05:33:11;;;;;;;7.93;2.67;;;12.80;99.90;;;;;;5061643;28;37969;-78
2023/10/04 05:35:38;;;;;;;9.35;2.80;;;12.80;99.90;;;;;;5062422;28;39307;-78
2023/10/04 05:38:04;;;;;;;8.18;2.72;;;12.80;99.90;;;;;;5041662;28;38632;-78
2023/10/04 05:40:31;;;;;;;13.40;2.88;;;12.80;99.90;;;;;;5065095;28;37002;-78
2023/10/04 05:42:58;;;;;;;9.68;2.80;;;12.90;99.90;;;;;;5042891;28;38428;-77
2023/10/04 05:45:25;;;;;;;10.23;3.47;;;12.90;99.90;;;;;;5045040;28;37849;-74
2023/10/04 05:47:52;;;;;;;11.35;3.25;;;12.90;99.90;;;;;;5039482;28;39324;-74
2023/10/04 05:50:22;;;;;;;9.02;3.08;;;13.00;99.90;;;;;;5049574;28;35874;-77
2023/10/04 05:52:52;;;;;;;15.93;3.65;;;13.00;99.90;;;;;;5063827;28;39839;-79
2023/10/04 05:55:20;;;;;;;15.93;3.28;;;13.00;99.90;;;;;;5046638;28;37820;-77
2023/10/04 05:57:47;;;;;;;11.18;3.58;;;13.10;99.90;;;;;;5034907;28;38344;-78
2023/10/04 06:02:53;;;;;;;14.35;3.83;;;13.30;99.90;;;;;;5039736;28;38226;-79
2023/10/04 06:05:23;;;;;;;11.35;3.00;;;13.40;99.90;;;;;;5024903;28;38704;-78
2023/10/04 06:07:54;;;;;;;10.45;3.20;;;13.50;99.90;;;;;;5040524;28;39316;-79
2023/10/04 06:10:22;;;;;;;12.18;4.13;;;13.50;99.90;;;;;;5041016;28;36828;-78
2023/10/04 06:12:50;;;;;;;11.57;3.35;;;13.50;99.90;;;;;;5027646;28;38594;-75
2023/10/04 06:15:17;;;;;;;14.25;3.50;;;13.60;99.90;;;;;;5045179;28;39744;-76
2023/10/04 06:17:45;;;;;;;13.73;3.60;;;13.60;99.90;;;;;;5047094;28;38367;-77
2023/10/04 06:22:59;;;;;;;12.05;3.70;;;13.70;99.90;;;;;;5043018;28;39813;-78
2023/10/04 06:25:26;;;;;;;11.50;3.80;;;13.70;99.90;;;;;;5051304;28;39487;-78
2023/10/04 06:27:57;;;;;;;12.85;4.20;;;13.70;99.90;;;;;;5040366;28;38406;-77
2023/10/04 06:30:28;;;;;;;14.82;4.55;;;13.70;99.90;;;;;;5030048;28;36037;-81
2023/10/04 06:32:56;;;;;;;17.58;3.78;;;13.70;99.90;;;;;;5043788;28;38398;-75
2023/10/04 06:35:24;;;;;;;11.63;3.95;;;13.80;99.90;;;;;;5022589;28;38942;-76
2023/10/04 06:37:56;;;;;;;19.33;5.03;;;13.80;99.90;;;;;;5048211;28;38586;-75
2023/10/04 06:40:24;;;;;;;15.82;3.78;;;13.90;99.90;;;;;;5031054;28;36077;-75
2023/10/04 06:42:51;;;;;;;17.45;4.20;;;13.90;99.90;;;;;;5026960;28;38704;-75
2023/10/04 06:45:19;;;;;;;10.38;3.58;;;14.00;99.90;;;;;;5044712;28;38623;-75
2023/10/04 06:47:50;;;;;;;9.80;3.33;;;14.10;99.90;;;;;;5026632;28;38615;-75
2023/10/04 06:50:28;;;;;;;12.38;4.10;;;14.20;99.90;;;;;;5029418;28;35969;-74
2023/10/04 06:52:57;;;;;;;15.93;3.90;;;14.20;99.90;;;;;;5047752;28;38585;-78
2023/10/04 06:55:26;;;;;;;19.38;4.50;;;14.20;99.90;;;;;;5023562;28;40742;-77
2023/10/04 06:57:53;;;;;;;16.25;3.25;;;14.20;99.90;;;;;;5026016;28;38637;-76
2023/10/04 07:00:30;;;;;;;12.93;3.72;;;14.20;99.90;;;;;;5025220;28;36370;-76
2023/10/04 07:03:01;;;;;;;16.65;3.67;;;14.30;99.90;;;;;;5028735;28;37776;-77
2023/10/04 07:05:38;;;;;;;14.75;4.07;;;14.30;99.90;;;;;;5026758;28;47407;-77
2023/10/04 07:08:06;;;;;;;11.52;3.47;;;14.30;99.90;;;;;;5047304;28;37750;-77
2023/10/04 07:10:33;;;;;;;16.02;3.75;;;14.40;99.90;;;;;;5031629;28;37137;-77
2023/10/04 07:13:01;;;;;;;13.57;3.30;;;14.50;99.90;;;;;;5050081;28;39539;-77
2023/10/04 07:15:30;;;;;;;16.00;4.43;;;14.50;99.90;;;;;;5028378;28;47270;-77
2023/10/04 07:17:57;;;;;;;13.52;3.60;;;14.60;99.90;;;;;;5024674;28;37342;-77
2023/10/04 07:20:26;;;;;;;11.98;3.70;;;14.70;99.90;;;;;;5032980;28;36302;-76
2023/10/04 07:23:03;;;;;;;15.77;4.32;;;14.70;99.90;;;;;;5026740;28;40316;-78
2023/10/04 07:25:30;;;;;;;15.02;3.97;;;14.80;99.90;;;;;;5029199;28;48330;-76
2023/10/04 07:28:01;;;;;;;12.05;3.80;;;14.80;99.90;;;;;;5029197;28;37121;-79
2023/10/04 07:30:28;;;;;;;14.90;3.38;;;15.00;99.90;;;;;;5048733;28;48436;-79
2023/10/04 07:32:55;;;;;;;21.25;3.72;;;15.00;99.90;;;;;;5034075;28;38449;-78
2023/10/04 07:35:25;;;;;;;20.02;5.38;;;15.10;99.90;;;;;;5064138;28;38310;-78
2023/10/04 07:37:52;;;;;;;9.82;3.30;;;15.10;99.90;;;;;;5045338;28;38001;-79
2023/10/04 07:40:20;;;;;;;22.77;4.30;;;15.20;99.90;;;;;;5035007;28;36148;-78
2023/10/04 07:42:47;;;;;;;10.25;3.75;;;15.20;99.90;;;;;;5029213;28;39216;-76
2023/10/04 07:45:14;;;;;;;11.02;3.55;;;15.20;99.90;;;;;;5034470;28;37813;-76
2023/10/04 07:47:41;;;;;;;15.43;3.70;;;15.20;99.90;;;;;;5033304;28;37599;-77
2023/10/04 07:50:14;;;;;;;11.05;4.00;;;15.30;99.90;;;;;;5030510;28;35471;-77
2023/10/04 07:52:44;;;;;;;21.20;4.30;;;15.30;99.90;;;;;;5031204;28;38782;-77
2023/10/04 07:55:20;;;;;;;14.75;3.63;;;15.30;99.90;;;;;;5032233;28;37856;-77
2023/10/04 07:57:46;;;;;;;16.73;3.55;;;15.30;99.90;;;;;;5030895;28;38586;-77
2023/10/04 08:00:14;;;;;;;9.50;3.03;;;15.30;99.90;;;;;;5050762;28;37054;-77
2023/10/04 08:02:51;;;;;;;12.10;3.70;;;15.30;99.90;;;;;;5044499;28;38307;-77
2023/10/04 08:05:20;;;;;;;14.50;4.05;;;15.40;99.90;;;;;;5029210;28;38210;-77
2023/10/04 08:07:48;;;;;;;13.77;3.88;;;15.50;99.90;;;;;;5031367;28;37470;-78
2023/10/04 08:10:15;;;;;;;10.70;3.65;;;15.50;99.90;;;;;;5031603;28;37256;-77
2023/10/04 08:12:42;;;;;;;12.63;3.42;;;15.60;99.90;;;;;;5031010;28;39123;-76
2023/10/04 08:15:15;;;;;;;11.45;3.55;;;15.60;99.90;;;;;;5047257;28;39508;-77
2023/10/04 08:17:47;;;;;;;12.35;3.75;;;15.60;99.90;;;;;;5047368;28;39309;-77
2023/10/04 08:20:15;;;;;;;16.17;3.67;;;15.70;99.90;;;;;;5047549;28;37120;-78
2023/10/04 08:22:42;;;;;;;13.73;4.63;;;15.70;99.90;;;;;;5033784;28;37934;-77
2023/10/04 08:25:10;;;;;;;14.88;4.07;;;15.70;99.90;;;;;;5046890;28;39094;-79
2023/10/04 08:27:37;;;;;;;14.15;4.03;;;15.70;99.90;;;;;;5026241;28;37235;-80
2023/10/04 08:30:07;;;;;;;21.52;4.50;;;15.80;99.90;;;;;;5047828;28;37458;-77
2023/10/04 08:32:34;;;;;;;14.55;3.55;;;15.80;99.90;;;;;;5027469;28;47546;-79
2023/10/04 08:35:00;;;;;;;14.10;4.88;;;15.80;99.90;;;;;;5030632;28;38014;-78
2023/10/04 08:37:27;;;;;;;13.55;4.15;;;15.80;99.90;;;;;;5023835;28;37103;-78
2023/10/04 08:39:53;;;;;;;13.23;3.88;;;15.90;99.90;;;;;;5043590;28;36659;-78
2023/10/04 08:42:20;;;;;;;12.55;3.85;;;15.90;99.90;;;;;;5032256;28;38167;-78
2023/10/04 08:44:46;;;;;;;17.88;4.80;;;15.90;99.90;;;;;;5025127;28;39414;-78
2023/10/04 08:47:13;;;;;;;14.35;4.38;;;15.90;99.90;;;;;;5027714;28;39684;-78
2023/10/04 08:49:51;;;;;;;14.52;4.22;;;16.00;99.90;;;;;;5025633;28;35655;-78
2023/10/04 08:52:26;;;;;;;10.80;3.80;;;16.00;99.90;;;;;;5026187;28;39477;-78
2023/10/04 08:54:58;;;;;;;15.52;4.32;;;16.10;99.90;;;;;;5045802;28;39268;-78
2023/10/04 08:57:26;;;;;;;16.00;4.68;;;16.20;99.90;;;;;;5025866;28;38789;-78
2023/10/04 08:59:55;;;;;;;16.10;4.53;;;16.20;99.90;;;;;;5026524;28;36388;-78
2023/10/04 09:02:22;;;;;;;14.48;3.90;;;16.40;99.90;;;;;;5025067;28;39135;-78
2023/10/04 09:04:50;;;;;;;14.05;4.50;;;16.40;99.90;;;;;;5025643;28;37810;-78
2023/10/04 09:07:19;;;;;;;11.85;3.90;;;16.50;99.90;;;;;;5024485;28;38773;-77
2023/10/04 09:09:46;;;;;;;17.38;3.85;;;16.70;99.90;;;;;;5044962;28;37090;-79
2023/10/04 09:12:12;;;;;;;17.38;4.68;;;16.70;99.90;;;;;;5041564;28;38400;-78
2023/10/04 09:14:40;;;;;;;10.45;4.00;;;16.70;99.90;;;;;;5041921;28;37504;-78
2023/10/04 09:17:14;;;;;;;14.95;4.10;;;16.70;99.90;;;;;;5023302;28;38747;-78
2023/10/04 09:19:41;;;;;;;14.18;3.95;;;16.50;99.90;;;;;;5026604;28;36037;-79
2023/10/04 09:22:09;;;;;;;24.25;5.55;;;16.50;99.90;;;;;;5029856;28;37498;-79
2023/10/04 09:24:50;;;;;;;20.98;4.47;;;16.30;99.90;;;;;;5040618;28;39175;-80
2023/10/04 09:27:16;;;;;;;14.20;4.40;;;16.20;99.90;;;;;;5022394;28;37694;-79
2023/10/04 09:29:43;;;;;;;14.05;4.05;;;16.40;99.90;;;;;;5021514;28;35953;-79
2023/10/04 09:32:09;;;;;;;11.85;3.90;;;16.50;99.90;;;;;;5022315;28;37825;-79
2023/10/04 09:34:35;;;;;;;13.23;3.88;;;16.50;99.90;;;;;;5022965;28;37656;-78
2023/10/04 09:37:02;;;;;;;16.35;4.25;;;16.50;99.90;;;;;;5021647;28;37611;-79
2023/10/04 09:39:31;;;;;;;13.77;4.18;;;16.70;99.90;;;;;;5017164;28;47842;-79
2023/10/04 09:42:02;;;;;;;13.18;4.07;;;16.80;99.90;;;;;;5039715;28;37767;-79
2023/10/04 09:44:30;;;;;;;18.05;4.32;;;17.10;99.90;;;;;;5041030;28;48067;-78
2023/10/04 09:47:02;;;;;;;16.33;4.55;;;17.30;99.90;;;;;;5038785;28;39480;-78
2023/10/04 09:49:33;;;;;;;12.90;3.90;;;17.60;99.90;;;;;;5022517;28;47501;-79
2023/10/04 09:52:01;;;;;;;12.35;4.25;;;17.70;99.90;;;;;;5025951;28;39791;-78
2023/10/04 09:54:27;;;;;;;11.65;3.75;;;17.80;99.90;;;;;;5043019;28;48872;-79
2023/10/04 09:56:54;;;;;;;15.38;3.97;;;17.80;99.90;;;;;;5021744;28;37299;-78
2023/10/04 09:59:22;;;;;;;11.23;3.53;;;17.80;99.90;;;;;;5023416;28;36241;-78
2023/10/04 10:01:57;;;;;;;14.20;4.18;;;17.80;99.90;;;;;;5043636;28;38717;-79
2023/10/04 10:04:49;;;;;;;15.30;4.28;;;17.60;99.90;;;;;;5043670;28;39270;-79
2023/10/04 10:07:24;;;;;;;;;;;17.40;99.90;;;;;;5038945;28;37760;-79
2023/10/04 10:09:58;;;;;;;18.45;4.85;;;17.40;99.90;;;;;;5042102;28;38629;-80
2023/10/04 10:12:29;;;;;;;12.50;4.25;;;17.30;99.90;;;;;;5028538;28;37996;-79
2023/10/04 10:15:02;;;;;;;17.15;4.40;;;17.30;99.90;;;;;;5026075;28;38527;-80
2023/10/04 10:17:30;;;;;;;16.73;5.47;;;17.20;99.90;;;;;;5027406;28;39083;-80
2023/10/04 10:19:59;;;;;;;14.23;4.82;;;17.20;99.90;;;;;;5026944;28;36510;-79
2023/10/04 10:22:25;;;;;;;17.13;4.22;;;17.20;99.90;;;;;;5026480;28;41008;-80
2023/10/04 10:24:58;;;;;;;13.15;4.72;;;17.30;99.90;;;;;;5031624;28;37604;-79
2023/10/04 10:27:27;;;;;;;13.23;3.85;;;17.30;99.90;;;;;;5022889;28;37278;-79
2023/10/04 10:29:53;;;;;;;11.00;4.38;;;17.50;99.90;;;;;;5044499;28;36895;-80
2023/10/04 10:32:21;;;;;;;14.98;4.93;;;17.50;99.90;;;;;;5050250;28;38445;-80
2023/10/04 10:34:52;;;;;;;17.85;4.57;;;17.60;99.90;;;;;;5032610;28;36750;-79
2023/10/04 10:37:23;;;;;;;14.97;4.30;;;17.80;99.90;;;;;;5040200;28;37676;-80
2023/10/04 10:39:51;;;;;;;12.95;4.28;;;18.00;99.90;;;;;;5040646;28;37295;-79
2023/10/04 10:42:18;;;;;;;14.65;4.65;;;18.10;99.90;;;;;;5044188;28;38008;-79
2023/10/04 10:44:45;;;;;;;17.23;4.85;;;18.00;99.90;;;;;;5043247;28;37899;-79
2023/10/04 10:47:22;;;;;;;16.02;4.05;;;17.90;99.90;;;;;;5018413;28;37704;-78
2023/10/04 10:49:56;;;;;;;11.27;4.13;;;17.80;99.90;;;;;;5044737;28;37463;-79
2023/10/04 10:52:30;;;;;;;14.50;4.00;;;17.90;99.90;;;;;;5030315;28;37768;-78
2023/10/04 10:54:58;;;;;;;11.23;3.60;;;17.90;99.90;;;;;;5038597;28;38806;-78
2023/10/04 10:57:31;;;;;;;11.70;3.58;;;18.00;99.90;;;;;;5021688;28;38406;-80
2023/10/04 11:00:03;;;;;;;8.23;3.13;;;17.90;99.90;;;;;;5023375;28;36415;-78
2023/10/04 11:02:29;;;;;;;8.00;2.55;;;17.90;99.90;;;;;;5024456;28;47102;-79
2023/10/04 11:04:55;;;;;;;5.05;1.67;;;17.90;99.90;;;;;;5027177;28;37738;-78
2023/10/04 11:07:22;;;;;;;7.40;2.13;;;17.90;99.90;;;;;;5025646;28;36831;-78
2023/10/04 11:09:54;;;;;;;8.23;2.03;;;18.00;99.90;;;;;;5046465;28;36653;-78
2023/10/04 11:12:22;;;;;;;9.00;2.17;;;18.10;98.70;;;;;;5026999;28;36966;-82
2023/10/04 11:14:50;;;;;;;5.30;1.52;;;18.20;99.30;;;;;;5042077;28;38895;-81
2023/10/04 11:17:16;;;;;;;9.60;2.10;;;18.30;96.10;;;;;;5028901;28;38108;-77
2023/10/04 11:19:44;;;;;;;9.80;2.10;;;18.30;99.40;;;;;;5023592;28;35845;-78
2023/10/04 11:22:14;;;;;;;10.75;2.30;;;18.20;98.30;;;;;;5049331;28;39709;-79
2023/10/04 11:24:41;;;;;;;9.15;2.50;;;18.20;97.20;;;;;;5018907;28;39743;-79
2023/10/04 11:27:09;;;;;;;9.73;2.42;;;18.20;99.90;;;;;;5025311;28;41486;-80
2023/10/04 11:29:36;;;;;;;9.65;2.80;;;18.10;99.90;;;;;;5024237;28;37468;-80
2023/10/04 11:32:03;;;;;;;7.68;2.38;;;18.10;99.90;;;;;;5019816;28;38216;-79
2023/10/04 11:34:35;;;;;;;10.38;2.45;;;18.20;99.90;;;;;;5024400;28;37752;-78
2023/10/04 11:37:03;;;;;;;9.35;2.50;;;18.20;99.90;;;;;;5038721;28;38056;-80
2023/10/04 11:39:34;;;;;;;12.00;2.50;;;18.20;99.90;;;;;;5023193;28;47677;-79
2023/10/04 11:42:04;;;;;;;8.88;1.80;;;18.00;99.90;;;;;;5024188;28;36604;-79
2023/10/04 11:44:32;;;;;;;7.35;1.77;;;17.90;96.80;;;;;;5019759;28;47078;-79
2023/10/04 11:47:08;;;;;;;7.47;1.52;;;17.90;98.20;;;;;;5037386;28;38926;-78
2023/10/04 11:49:36;;;;;;;6.45;1.23;;;17.90;96.60;;;;;;5036197;28;47189;-77
2023/10/04 11:52:04;;;;;;;6.95;1.85;;;17.90;99.90;;;;;;5023562;28;38082;-77
2023/10/04 11:54:44;;;;;;;10.35;2.15;;;17.80;97.50;;;;;;5040188;28;36918;-77
2023/10/04 11:57:11;;;;;;;9.32;1.90;;;17.90;99.90;;;;;;5023202;28;38476;-76
2023/10/04 11:59:39;;;;;;;7.47;2.08;;;17.80;94.50;;;;;;5027737;28;37854;-76
2023/10/04 12:02:06;;;;;;;5.13;1.25;;;17.70;91.60;;;;;;5023535;28;40380;-76
2023/10/04 12:04:33;;;;;;;7.95;1.67;;;17.70;89.60;;;;;;5042591;28;39874;-76
2023/10/04 12:07:09;;;;;;;11.23;1.80;;;17.70;96.60;;;;;;5021203;28;37465;-75
2023/10/04 12:09:36;;;;;;;9.07;1.98;;;17.80;94.60;;;;;;5039234;28;47467;-77
2023/10/04 12:12:05;;;;;;;9.50;1.85;;;17.80;94.10;;;;;;5023196;28;37909;-77
2023/10/04 12:14:32;;;;;;;8.18;1.65;;;17.90;92.50;;;;;;5019069;28;37370;-77
2023/10/04 12:17:02;;;;;;;8.98;1.75;;;17.90;94.40;;;;;;5023977;28;37327;-77
2023/10/04 12:19:33;;;;;;;7.60;1.35;;;17.80;86.70;;;;;;5039187;28;47314;-77
2023/10/04 12:22:02;;;;;;;4.53;1.77;;;17.80;91.10;;;;;;5041845;28;39905;-77
2023/10/04 12:24:32;;;;;;;8.27;1.85;;;17.80;64.70;;;;;;5025749;28;47157;-78
2023/10/04 12:27:01;;;;;;;11.13;1.63;;;18.00;87.60;;;;;;5040878;28;38755;-78
2023/10/04 12:29:27;;;;;;;6.25;1.60;;;18.00;51.70;;;;;;5040624;28;48323;-78
2023/10/04 12:31:55;;;;;;;9.23;1.48;;;18.00;58.50;;;;;;5042503;28;38737;-78
2023/10/04 12:34:26;;;;;;;8.00;1.73;;;18.00;58.60;;;;;;5029794;28;38996;-78
2023/10/04 12:36:53;;;;;;;7.20;1.70;;;17.90;67.50;;;;;;5042500;28;39198;-79
2023/10/04 12:39:21;;;;;;;5.30;1.40;;;17.90;68.20;;;;;;5014515;28;36137;-79
2023/10/04 12:41:49;;;;;;;6.28;1.77;;;17.90;59.60;;;;;;5025910;28;38045;-78
2023/10/04 12:44:19;;;;;;;5.57;1.30;;;18.00;69.00;;;;;;5041381;28;38807;-77
2023/10/04 12:46:47;;;;;;;6.95;1.60;;;18.10;59.00;;;;;;5021119;28;37271;-77
2023/10/04 12:49:15;;;;;;;5.72;1.65;;;18.10;56.40;;;;;;5019940;28;35965;-78
2023/10/04 12:51:42;;;;;;;6.85;1.80;;;18.10;59.50;;;;;;5028495;28;39514;-77
2023/10/04 12:54:09;;;;;;;9.25;2.05;;;18.00;43.00;;;;;;5018540;28;37759;-78
2023/10/04 12:56:36;;;;;;;11.43;1.75;;;18.10;44.80;;;;;;5024324;28;38487;-78
2023/10/04 12:59:06;;;;;;;7.40;2.00;;;18.20;53.00;;;;;;5038282;28;37882;-78
2023/10/04 13:01:33;;;;;;;8.82;2.08;;;18.20;51.40;;;;;;5021613;28;37774;-78
2023/10/04 13:04:03;;;;;;;10.32;2.20;;;18.30;51.00;;;;;;5037958;28;39142;-78